Time;durP1;ratioP1;P1;durP2;ratioP2;P2;SDS_P1;SDS_P2;PMS_P1;PMS_P2;Temp;Humidity;BMP_temperature;BMP_pressure;BME280_temperature;BME280_humidity;BME280_pressure;Samples;Min_cycle;Max_cycle;Signal;HPM_P1;HPM_P2
2023/08/13 00:01:28;;;;;;;3.40;2.50;;;18.90;99.90;;;;;;5095750;28;20511;-65
2023/08/13 00:03:55;;;;;;;4.05;3.00;;;18.90;99.90;;;;;;5085755;28;20406;-65
2023/08/13 00:06:22;;;;;;;4.00;2.67;;;18.80;99.90;;;;;;5101040;28;20405;-65
2023/08/13 00:08:49;;;;;;;4.30;2.70;;;18.80;99.90;;;;;;5094296;28;20940;-65
2023/08/13 00:11:17;;;;;;;4.40;2.50;;;18.80;99.90;;;;;;5096367;27;20436;-65
2023/08/13 00:13:44;;;;;;;3.72;2.50;;;18.80;99.90;;;;;;5099329;28;20450;-65
2023/08/13 00:16:11;;;;;;;4.40;2.80;;;18.80;99.90;;;;;;5097317;28;20652;-67
2023/08/13 00:18:38;;;;;;;3.85;2.70;;;18.80;99.90;;;;;;5093447;28;21029;-63
2023/08/13 00:21:04;;;;;;;5.13;2.70;;;18.80;99.90;;;;;;5084235;28;20425;-65
2023/08/13 00:23:31;;;;;;;4.30;2.70;;;18.70;99.90;;;;;;5093584;28;20411;-66
2023/08/13 00:25:58;;;;;;;3.42;2.55;;;18.70;99.90;;;;;;5094019;28;20902;-67
2023/08/13 00:28:26;;;;;;;4.97;3.00;;;18.70;99.90;;;;;;5098726;28;20428;-65
2023/08/13 00:30:54;;;;;;;4.53;2.70;;;18.70;99.90;;;;;;5091656;28;20933;-65
2023/08/13 00:33:21;;;;;;;5.22;3.00;;;18.80;99.90;;;;;;5088214;28;20414;-64
2023/08/13 00:35:49;;;;;;;3.90;2.70;;;18.70;99.90;;;;;;5095837;28;20436;-64
2023/08/13 00:38:16;;;;;;;6.57;2.97;;;18.70;99.90;;;;;;5088785;28;20414;-65
2023/08/13 00:40:43;;;;;;;4.22;2.90;;;18.70;99.90;;;;;;5087058;27;20429;-64
2023/08/13 00:43:09;;;;;;;4.65;2.72;;;18.70;99.90;;;;;;5090837;28;20434;-67
2023/08/13 00:45:38;;;;;;;3.45;2.53;;;18.70;99.90;;;;;;5091071;28;20439;-66
2023/08/13 00:48:07;;;;;;;4.40;2.60;;;18.70;99.90;;;;;;5097234;28;20426;-67
2023/08/13 00:50:34;;;;;;;3.38;2.63;;;18.70;99.90;;;;;;5087220;28;20418;-66
2023/08/13 00:53:01;;;;;;;4.87;2.43;;;18.70;99.90;;;;;;5096802;28;20517;-66
2023/08/13 00:55:27;;;;;;;4.40;2.90;;;18.70;99.90;;;;;;5098359;28;20547;-67
2023/08/13 00:57:54;;;;;;;4.47;2.75;;;18.70;99.90;;;;;;5089003;28;20434;-65
2023/08/13 01:00:22;;;;;;;4.55;2.72;;;18.80;99.90;;;;;;5096497;28;20866;-64
2023/08/13 01:02:50;;;;;;;6.20;2.60;;;18.80;99.90;;;;;;5093942;28;20639;-65
2023/08/13 01:05:17;;;;;;;4.93;2.97;;;18.80;99.90;;;;;;5096860;28;20507;-66
2023/08/13 01:07:53;;;;;;;4.53;2.60;;;18.80;99.90;;;;;;5098928;28;20424;-66
2023/08/13 01:10:28;;;;;;;4.30;2.50;;;18.80;99.90;;;;;;5095472;27;20454;-67
2023/08/13 01:13:03;;;;;;;6.00;3.00;;;18.80;99.90;;;;;;5089623;28;20429;-66
2023/08/13 01:15:33;;;;;;;4.40;2.80;;;18.80;99.90;;;;;;5095089;28;20511;-67
2023/08/13 01:18:02;;;;;;;4.30;2.53;;;18.90;99.90;;;;;;5109348;28;20396;-66
2023/08/13 01:20:33;;;;;;;4.07;2.58;;;18.90;99.90;;;;;;5091811;28;20776;-67
2023/08/13 01:23:01;;;;;;;4.22;2.60;;;18.80;99.90;;;;;;5102154;28;20751;-66
2023/08/13 01:25:28;;;;;;;4.47;2.63;;;18.90;99.90;;;;;;5093521;28;20448;-67
2023/08/13 01:28:12;;;;;;;5.20;2.60;;;18.80;99.90;;;;;;5098406;28;20921;-66
2023/08/13 01:30:45;;;;;;;4.35;2.60;;;18.80;99.90;;;;;;5113857;22;20836;-67
2023/08/13 01:33:18;;;;;;;4.65;2.65;;;18.80;99.90;;;;;;5082723;28;20437;-65
2023/08/13 01:35:45;;;;;;;2.90;2.50;;;18.80;99.90;;;;;;5089020;28;20424;-66
2023/08/13 01:38:14;;;;;;;5.55;2.80;;;18.80;99.90;;;;;;5087419;28;20437;-68
2023/08/13 01:40:41;;;;;;;4.90;2.60;;;18.80;99.90;;;;;;5082380;28;20488;-66
2023/08/13 01:43:07;;;;;;;5.32;2.85;;;18.80;99.90;;;;;;5089591;28;20448;-66
2023/08/13 01:45:34;;;;;;;4.82;3.45;;;18.80;99.90;;;;;;5079665;28;20434;-66
2023/08/13 01:48:01;;;;;;;5.30;3.78;;;18.80;99.90;;;;;;5076032;28;20435;-66
2023/08/13 01:50:28;;;;;;;4.90;3.80;;;18.90;99.90;;;;;;5085429;28;20421;-67
2023/08/13 01:52:54;;;;;;;4.57;3.50;;;18.80;99.90;;;;;;5070879;28;20442;-66
2023/08/13 01:55:22;;;;;;;6.10;3.47;;;18.80;99.90;;;;;;5076637;28;20417;-66
2023/08/13 01:57:49;;;;;;;3.80;3.40;;;18.80;99.90;;;;;;5082000;28;20430;-66
2023/08/13 02:00:16;;;;;;;4.47;3.30;;;18.70;99.90;;;;;;5074175;28;20413;-66
2023/08/13 02:02:43;;;;;;;4.30;3.20;;;18.70;99.90;;;;;;5072845;28;20534;-66
2023/08/13 02:05:10;;;;;;;4.27;3.30;;;18.60;99.90;;;;;;5070802;28;20418;-66
2023/08/13 02:07:37;;;;;;;4.30;3.07;;;18.60;99.90;;;;;;5085416;28;20430;-66
2023/08/13 02:10:04;;;;;;;6.37;3.33;;;18.50;99.90;;;;;;5082456;28;20430;-66
2023/08/13 02:12:32;;;;;;;4.75;3.00;;;18.50;99.90;;;;;;5081238;28;20421;-66
2023/08/13 02:14:59;;;;;;;4.93;3.38;;;18.40;99.90;;;;;;5087046;28;20443;-66
2023/08/13 02:17:26;;;;;;;4.30;3.13;;;18.30;99.90;;;;;;5083210;28;20522;-66
2023/08/13 02:19:52;;;;;;;4.78;3.55;;;18.30;99.90;;;;;;5085669;28;20425;-66
2023/08/13 02:22:19;;;;;;;4.57;3.35;;;18.30;99.90;;;;;;5082961;28;20808;-67
2023/08/13 02:24:46;;;;;;;4.65;3.50;;;18.30;99.90;;;;;;5071203;28;20857;-66
2023/08/13 02:27:13;;;;;;;3.72;3.03;;;18.20;99.90;;;;;;5081938;28;20432;-67
2023/08/13 02:29:41;;;;;;;4.20;3.03;;;18.20;99.90;;;;;;5078482;28;20424;-68
2023/08/13 02:32:07;;;;;;;5.47;3.40;;;18.10;99.90;;;;;;5072937;28;20430;-68
2023/08/13 02:34:42;;;;;;;3.80;3.30;;;18.10;99.90;;;;;;5077046;28;20409;-68
2023/08/13 02:37:09;;;;;;;4.80;4.10;;;18.10;99.90;;;;;;5079634;28;20424;-68
2023/08/13 02:39:36;;;;;;;6.97;4.73;;;18.10;99.90;;;;;;5072219;28;20422;-66
2023/08/13 02:42:02;;;;;;;5.95;4.30;;;18.10;99.90;;;;;;5080743;28;20804;-68
2023/08/13 02:44:29;;;;;;;5.10;4.25;;;18.10;99.90;;;;;;5082229;28;20420;-68
2023/08/13 02:46:58;;;;;;;5.47;4.97;;;18.00;99.90;;;;;;5076362;28;20829;-68
2023/08/13 02:49:24;;;;;;;6.65;4.78;;;18.00;99.90;;;;;;5082131;28;21005;-68
2023/08/13 02:51:51;;;;;;;7.05;5.25;;;18.00;99.90;;;;;;5081660;28;20422;-67
2023/08/13 02:54:18;;;;;;;5.60;5.00;;;18.00;99.90;;;;;;5085628;28;20437;-68
2023/08/13 02:56:44;;;;;;;6.97;4.73;;;18.00;99.90;;;;;;5074270;28;20434;-69
2023/08/13 02:59:11;;;;;;;5.35;4.53;;;18.00;99.90;;;;;;5077239;28;20411;-66
2023/08/13 03:01:39;;;;;;;5.90;4.70;;;17.90;99.90;;;;;;5079735;28;20434;-68
2023/08/13 03:04:07;;;;;;;6.00;4.85;;;17.90;99.90;;;;;;5079049;28;20455;-68
2023/08/13 03:06:34;;;;;;;7.13;5.13;;;17.90;99.90;;;;;;5080779;28;20425;-68
2023/08/13 03:09:01;;;;;;;6.30;4.90;;;17.90;99.90;;;;;;5078020;28;20435;-66
2023/08/13 03:11:27;;;;;;;5.43;4.60;;;17.90;99.90;;;;;;5080595;28;20430;-66
2023/08/13 03:13:54;;;;;;;5.80;4.80;;;17.80;99.90;;;;;;5079946;28;20435;-66
2023/08/13 03:16:21;;;;;;;5.72;4.60;;;17.80;99.90;;;;;;5082146;28;20798;-68
2023/08/13 03:18:48;;;;;;;5.85;4.60;;;17.80;99.90;;;;;;5083898;28;20416;-68
2023/08/13 03:21:16;;;;;;;5.75;5.15;;;17.80;99.90;;;;;;5077780;28;20433;-67
2023/08/13 03:23:42;;;;;;;6.60;4.80;;;17.80;99.90;;;;;;5077894;28;20521;-68
2023/08/13 03:26:09;;;;;;;5.50;5.00;;;17.80;99.90;;;;;;5085344;28;20937;-67
2023/08/13 03:28:36;;;;;;;7.10;4.80;;;17.80;99.90;;;;;;5073264;28;20432;-68
2023/08/13 03:31:03;;;;;;;7.80;4.70;;;17.80;99.90;;;;;;5072976;28;20428;-68
2023/08/13 03:33:30;;;;;;;6.50;5.03;;;17.70;99.90;;;;;;5079362;28;20434;-67
2023/08/13 03:35:56;;;;;;;7.53;4.43;;;17.70;99.90;;;;;;5070560;28;20439;-66
2023/08/13 03:38:24;;;;;;;5.38;4.70;;;17.60;99.90;;;;;;5082386;28;20489;-66
2023/08/13 03:40:54;;;;;;;8.13;5.05;;;17.60;99.90;;;;;;5080192;28;20412;-66
2023/08/13 03:43:21;;;;;;;8.13;5.10;;;17.60;99.90;;;;;;5089224;28;20947;-66
2023/08/13 03:45:47;;;;;;;5.17;4.67;;;17.60;99.90;;;;;;5082954;28;20436;-66
2023/08/13 03:48:14;;;;;;;5.70;4.82;;;17.60;99.90;;;;;;5069241;28;20475;-66
2023/08/13 03:50:42;;;;;;;5.65;5.10;;;17.60;99.90;;;;;;5083998;28;20421;-66
2023/08/13 03:53:09;;;;;;;6.10;4.80;;;17.60;99.90;;;;;;5069436;28;20508;-66
2023/08/13 03:55:37;;;;;;;5.50;4.70;;;17.60;99.90;;;;;;5083394;28;20418;-67
2023/08/13 03:58:05;;;;;;;7.28;5.53;;;17.60;99.90;;;;;;5080548;28;20982;-66
2023/08/13 04:00:32;;;;;;;6.85;5.40;;;17.60;99.90;;;;;;5076668;28;20436;-66
2023/08/13 04:02:58;;;;;;;6.00;4.90;;;17.50;99.90;;;;;;5086711;28;20421;-66
2023/08/13 04:05:26;;;;;;;6.00;4.88;;;17.50;99.90;;;;;;5082196;28;20431;-66
2023/08/13 04:07:52;;;;;;;7.82;5.47;;;17.60;99.90;;;;;;5078836;28;20763;-68
2023/08/13 04:10:19;;;;;;;5.70;4.97;;;17.60;99.90;;;;;;5086794;28;20520;-67
2023/08/13 04:12:47;;;;;;;7.05;5.47;;;17.50;99.90;;;;;;5075770;28;20413;-67
2023/08/13 04:15:16;;;;;;;7.57;5.15;;;17.50;99.90;;;;;;5073093;28;20420;-67
2023/08/13 04:17:42;;;;;;;7.80;5.50;;;17.50;99.90;;;;;;5081397;28;20446;-68
2023/08/13 04:20:11;;;;;;;6.50;5.40;;;17.50;99.90;;;;;;5085738;28;20882;-67
2023/08/13 04:22:37;;;;;;;5.70;5.10;;;17.50;99.90;;;;;;5076853;28;20448;-64
2023/08/13 04:25:07;;;;;;;6.07;5.45;;;17.50;99.90;;;;;;5079436;28;20416;-64
2023/08/13 04:27:33;;;;;;;5.80;5.20;;;17.50;99.90;;;;;;5079463;28;20426;-64
2023/08/13 04:30:02;;;;;;;6.63;5.82;;;17.40;99.90;;;;;;5071729;28;20893;-64
2023/08/13 04:32:28;;;;;;;5.72;5.00;;;17.40;99.90;;;;;;5075377;28;20909;-64
2023/08/13 04:34:55;;;;;;;5.70;5.07;;;17.40;99.90;;;;;;5078100;28;20419;-63
2023/08/13 04:37:22;;;;;;;5.90;5.30;;;17.40;99.90;;;;;;5080362;28;20414;-63
2023/08/13 04:39:48;;;;;;;5.32;4.82;;;17.40;99.90;;;;;;5079765;28;20410;-64
2023/08/13 04:42:15;;;;;;;6.47;5.00;;;17.50;99.90;;;;;;5073331;28;20451;-64
2023/08/13 04:44:42;;;;;;;5.88;5.00;;;17.50;99.90;;;;;;5075412;28;20430;-64
2023/08/13 04:47:10;;;;;;;6.00;5.40;;;17.50;99.90;;;;;;5082096;28;20422;-64
2023/08/13 04:49:36;;;;;;;5.78;5.18;;;17.50;99.90;;;;;;5086753;28;20426;-64
2023/08/13 04:52:04;;;;;;;5.47;4.90;;;17.50;99.90;;;;;;5079233;28;20409;-63
2023/08/13 04:54:30;;;;;;;7.38;4.85;;;17.50;99.90;;;;;;5079218;28;20463;-63
2023/08/13 04:56:57;;;;;;;6.22;4.65;;;17.50;99.90;;;;;;5084832;28;20426;-63
2023/08/13 04:59:24;;;;;;;6.32;4.70;;;17.50;99.90;;;;;;5082122;28;20450;-64
2023/08/13 05:01:51;;;;;;;6.13;4.88;;;17.50;99.90;;;;;;5078434;28;20439;-63
2023/08/13 05:04:19;;;;;;;6.30;4.55;;;17.50;99.90;;;;;;5081364;28;20808;-64
2023/08/13 05:06:45;;;;;;;5.80;5.20;;;17.50;99.90;;;;;;5075864;28;20786;-64
2023/08/13 05:09:12;;;;;;;5.80;5.20;;;17.50;99.90;;;;;;5076669;28;20438;-64
2023/08/13 05:11:39;;;;;;;5.43;4.93;;;17.50;99.90;;;;;;5079744;28;20410;-64
2023/08/13 05:14:05;;;;;;;6.13;4.80;;;17.60;99.90;;;;;;5076426;28;20427;-64
2023/08/13 05:16:32;;;;;;;5.77;5.20;;;17.60;99.90;;;;;;5075425;28;20439;-65
2023/08/13 05:18:59;;;;;;;5.72;4.70;;;17.50;99.90;;;;;;5077875;28;20412;-64
2023/08/13 05:21:27;;;;;;;6.85;5.18;;;17.60;99.90;;;;;;5080091;28;20408;-64
2023/08/13 05:23:54;;;;;;;6.95;5.95;;;17.60;99.90;;;;;;5078848;28;20448;-64
2023/08/13 05:26:20;;;;;;;6.03;5.32;;;17.60;99.90;;;;;;5076970;28;20444;-64
2023/08/13 05:28:47;;;;;;;5.90;5.30;;;17.60;99.90;;;;;;5081351;28;20445;-64
2023/08/13 05:31:14;;;;;;;6.15;4.88;;;17.70;99.90;;;;;;5080511;28;20442;-64
2023/08/13 05:33:40;;;;;;;7.97;5.40;;;17.60;99.90;;;;;;5079002;28;20410;-64
2023/08/13 05:36:07;;;;;;;7.07;5.20;;;17.60;99.90;;;;;;5075061;28;20420;-64
2023/08/13 05:38:35;;;;;;;6.18;5.15;;;17.60;99.90;;;;;;5072386;28;20427;-63
2023/08/13 05:41:02;;;;;;;6.95;5.43;;;17.70;99.90;;;;;;5070249;28;20760;-64
2023/08/13 05:43:29;;;;;;;7.95;5.80;;;17.70;99.90;;;;;;5076621;28;20427;-64
2023/08/13 05:45:55;;;;;;;7.90;5.40;;;17.70;99.90;;;;;;5071756;28;20936;-64
2023/08/13 05:48:22;;;;;;;5.93;5.32;;;17.70;99.90;;;;;;5075869;28;20410;-64
2023/08/13 05:50:49;;;;;;;7.50;5.20;;;17.70;99.90;;;;;;5083385;28;20437;-65
2023/08/13 05:53:15;;;;;;;5.90;4.97;;;17.80;99.90;;;;;;5079724;28;20413;-63
2023/08/13 05:55:44;;;;;;;6.63;4.70;;;17.90;99.90;;;;;;5082871;28;20428;-64
2023/08/13 05:58:10;;;;;;;5.30;4.50;;;17.90;99.90;;;;;;5078335;28;20432;-64
2023/08/13 06:00:37;;;;;;;5.78;4.80;;;18.00;99.90;;;;;;5082365;28;20816;-65
2023/08/13 06:03:04;;;;;;;6.05;4.40;;;18.10;99.90;;;;;;5076438;28;20511;-64
2023/08/13 06:05:31;;;;;;;7.40;5.00;;;18.20;99.90;;;;;;5081624;28;20508;-64
2023/08/13 06:07:58;;;;;;;5.40;4.90;;;18.20;99.90;;;;;;5087676;28;20436;-65
2023/08/13 06:10:25;;;;;;;6.00;4.70;;;18.20;99.90;;;;;;5089695;28;20426;-64
2023/08/13 06:12:53;;;;;;;5.70;4.43;;;18.30;99.90;;;;;;5081222;28;20427;-65
2023/08/13 06:15:20;;;;;;;5.90;4.97;;;18.30;99.90;;;;;;5085397;28;20434;-64
2023/08/13 06:17:48;;;;;;;4.70;4.20;;;18.30;99.90;;;;;;5079124;28;20773;-64
2023/08/13 06:20:17;;;;;;;6.95;4.10;;;18.30;99.90;;;;;;5086644;28;20415;-65
2023/08/13 06:22:45;;;;;;;4.40;4.00;;;18.30;99.90;;;;;;5086574;28;20783;-64
2023/08/13 06:25:11;;;;;;;5.57;4.27;;;18.30;99.90;;;;;;5073628;28;20499;-64
2023/08/13 06:27:38;;;;;;;4.78;4.15;;;18.40;99.90;;;;;;5078068;28;20434;-64
2023/08/13 06:30:08;;;;;;;4.50;4.10;;;18.40;99.90;;;;;;5083559;28;20997;-65
2023/08/13 06:32:35;;;;;;;4.95;3.90;;;18.50;99.90;;;;;;5085553;28;20983;-65
2023/08/13 06:35:02;;;;;;;4.10;3.70;;;18.60;99.90;;;;;;5077554;28;20438;-65
2023/08/13 06:37:29;;;;;;;7.15;4.13;;;18.60;99.90;;;;;;5085115;28;20414;-65
2023/08/13 06:39:56;;;;;;;5.30;3.93;;;18.70;99.90;;;;;;5082153;28;20441;-65
2023/08/13 06:42:23;;;;;;;4.43;3.63;;;18.80;99.90;;;;;;5087768;28;20433;-66
2023/08/13 06:44:50;;;;;;;5.18;3.70;;;18.80;99.90;;;;;;5083220;28;20432;-63
2023/08/13 06:47:18;;;;;;;4.05;3.58;;;18.90;99.90;;;;;;5073454;28;20431;-65
2023/08/13 06:49:45;;;;;;;4.50;3.28;;;18.90;99.90;;;;;;5079280;28;20423;-65
2023/08/13 06:52:11;;;;;;;5.50;3.40;;;19.00;99.90;;;;;;5079128;28;20490;-64
2023/08/13 06:54:38;;;;;;;4.55;3.33;;;19.10;99.90;;;;;;5086561;28;20429;-64
2023/08/13 06:57:05;;;;;;;4.50;3.30;;;19.20;99.90;;;;;;5081343;28;21084;-64
2023/08/13 06:59:32;;;;;;;5.33;3.50;;;19.30;99.90;;;;;;5075581;28;20758;-64
2023/08/13 07:01:59;;;;;;;4.55;3.13;;;19.40;99.90;;;;;;5077889;28;20434;-64
2023/08/13 07:04:27;;;;;;;5.35;3.40;;;19.50;99.90;;;;;;5075417;28;20937;-64
2023/08/13 07:06:53;;;;;;;6.22;3.70;;;19.60;99.90;;;;;;5076834;28;20420;-64
2023/08/13 07:09:21;;;;;;;4.87;3.70;;;19.70;99.90;;;;;;5070672;28;20458;-64
2023/08/13 07:11:48;;;;;;;4.63;3.10;;;19.90;99.90;;;;;;5080437;28;20483;-64
2023/08/13 07:14:15;;;;;;;3.70;2.88;;;20.10;99.90;;;;;;5078782;28;20406;-64
2023/08/13 07:16:41;;;;;;;4.53;3.03;;;20.20;99.90;;;;;;5075032;28;20833;-63
2023/08/13 07:19:08;;;;;;;5.60;3.40;;;20.30;99.70;;;;;;5070224;28;20427;-64
2023/08/13 07:21:36;;;;;;;5.28;2.80;;;20.30;98.70;;;;;;5082183;28;20410;-63
2023/08/13 07:24:04;;;;;;;5.38;3.13;;;20.30;98.80;;;;;;5084728;28;20507;-63
2023/08/13 07:26:30;;;;;;;6.53;4.00;;;20.20;98.60;;;;;;5086763;28;20513;-63
2023/08/13 07:28:57;;;;;;;5.35;3.30;;;20.20;98.50;;;;;;5083080;28;20434;-63
2023/08/13 07:31:25;;;;;;;5.80;3.33;;;20.20;98.10;;;;;;5112549;22;20439;-70
2023/08/13 07:33:53;;;;;;;7.23;3.70;;;20.30;97.80;;;;;;5100350;28;20520;-70
2023/08/13 07:36:20;;;;;;;5.15;3.95;;;20.40;97.70;;;;;;5098785;28;20444;-70
2023/08/13 07:38:48;;;;;;;5.55;3.90;;;20.40;96.40;;;;;;5090617;28;20455;-71
2023/08/13 07:41:15;;;;;;;4.70;3.50;;;20.40;96.20;;;;;;5091577;28;20434;-71
2023/08/13 07:43:42;;;;;;;7.70;4.30;;;20.40;96.10;;;;;;5080382;28;20516;-71
2023/08/13 07:46:08;;;;;;;5.18;3.13;;;20.30;95.70;;;;;;5082151;28;20431;-71
2023/08/13 07:48:35;;;;;;;6.65;3.50;;;20.30;95.90;;;;;;5072672;28;20533;-72
2023/08/13 07:51:02;;;;;;;6.40;3.30;;;20.40;95.80;;;;;;5087164;28;20445;-70
2023/08/13 07:53:31;;;;;;;5.90;2.90;;;20.40;95.40;;;;;;5081135;28;20506;-70
2023/08/13 07:55:59;;;;;;;6.03;2.75;;;20.50;95.10;;;;;;5082516;28;20674;-70
2023/08/13 07:58:26;;;;;;;3.70;2.53;;;20.60;94.30;;;;;;5086238;28;20445;-71
2023/08/13 08:00:53;;;;;;;6.20;3.40;;;20.70;94.00;;;;;;5083742;28;20745;-70
2023/08/13 08:03:19;;;;;;;5.70;3.42;;;20.70;94.10;;;;;;5092092;28;20426;-70
2023/08/13 08:05:47;;;;;;;4.20;3.17;;;20.90;94.00;;;;;;5084975;28;20437;-71
2023/08/13 08:08:14;;;;;;;4.40;3.10;;;21.00;93.60;;;;;;5084480;28;20437;-70
2023/08/13 08:10:41;;;;;;;5.50;2.70;;;21.10;93.40;;;;;;5081991;28;20477;-70
2023/08/13 08:13:09;;;;;;;5.43;2.83;;;21.20;92.80;;;;;;5080571;28;20427;-70
2023/08/13 08:15:35;;;;;;;5.85;3.10;;;21.30;91.90;;;;;;5077567;28;20463;-70
2023/08/13 08:18:02;;;;;;;4.78;2.85;;;21.30;91.70;;;;;;5082544;28;20457;-69
2023/08/13 08:20:29;;;;;;;5.97;3.07;;;21.20;91.80;;;;;;5076106;28;20429;-69
2023/08/13 08:22:56;;;;;;;6.18;3.00;;;21.30;91.90;;;;;;5086038;28;20435;-69
2023/08/13 08:25:22;;;;;;;6.72;2.97;;;21.40;91.10;;;;;;5074669;28;20430;-69
2023/08/13 08:27:49;;;;;;;5.70;3.40;;;21.50;91.50;;;;;;5097069;28;20408;-68
2023/08/13 08:30:17;;;;;;;4.97;2.80;;;21.50;91.30;;;;;;5076792;28;20428;-68
2023/08/13 08:32:44;;;;;;;4.60;2.50;;;21.50;91.80;;;;;;5075847;28;20427;-70
2023/08/13 08:35:11;;;;;;;4.87;2.70;;;21.60;91.60;;;;;;5082115;28;20424;-69
2023/08/13 08:37:37;;;;;;;4.30;2.80;;;21.80;91.40;;;;;;5088787;28;20556;-68
2023/08/13 08:40:07;;;;;;;5.00;2.50;;;21.80;90.50;;;;;;5078461;28;20896;-68
2023/08/13 08:42:34;;;;;;;4.68;2.30;;;21.80;90.80;;;;;;5078663;28;20900;-67
2023/08/13 08:45:01;;;;;;;5.82;2.60;;;21.90;90.60;;;;;;5082617;28;20456;-68
2023/08/13 08:47:30;;;;;;;5.80;2.40;;;22.00;89.60;;;;;;5079895;28;20451;-71
2023/08/13 08:49:57;;;;;;;4.85;2.38;;;22.00;88.60;;;;;;5076455;28;22383;-73
2023/08/13 08:52:23;;;;;;;3.75;2.05;;;22.00;87.80;;;;;;5078782;28;20509;-68
2023/08/13 08:54:51;;;;;;;4.60;2.30;;;22.20;87.50;;;;;;5081256;28;20474;-69
2023/08/13 08:57:17;;;;;;;4.88;2.20;;;22.30;85.10;;;;;;5089082;28;20536;-69
2023/08/13 08:59:45;;;;;;;3.90;2.13;;;22.40;84.60;;;;;;5087852;28;20445;-69
2023/08/13 09:02:13;;;;;;;3.42;2.10;;;22.50;83.10;;;;;;5078287;28;20436;-71
2023/08/13 09:04:41;;;;;;;5.72;2.47;;;22.50;81.50;;;;;;5074205;28;20440;-69
2023/08/13 09:07:08;;;;;;;4.35;2.00;;;22.60;81.10;;;;;;5090723;28;20417;-70
2023/08/13 09:09:36;;;;;;;5.23;2.20;;;22.70;80.60;;;;;;5072172;28;20425;-69
2023/08/13 09:12:03;;;;;;;5.27;2.10;;;22.80;80.70;;;;;;5080530;28;20845;-72
2023/08/13 09:14:30;;;;;;;4.65;2.05;;;22.90;78.70;;;;;;5075167;28;20457;-73
2023/08/13 09:16:57;;;;;;;4.85;2.10;;;22.90;77.10;;;;;;5081885;28;20520;-75
2023/08/13 09:19:26;;;;;;;3.85;2.10;;;23.00;75.70;;;;;;5074713;28;20430;-72
2023/08/13 09:21:55;;;;;;;4.33;1.90;;;23.00;76.00;;;;;;5086360;28;20436;-70
2023/08/13 09:24:33;;;;;;;3.90;1.80;;;23.10;76.80;;;;;;5086832;28;20429;-70
2023/08/13 09:27:00;;;;;;;5.13;1.98;;;23.20;77.10;;;;;;5089107;28;20818;-70
2023/08/13 09:29:29;;;;;;;4.28;2.00;;;23.10;73.30;;;;;;5082975;28;20426;-70
2023/08/13 09:31:56;;;;;;;4.57;1.60;;;23.10;74.90;;;;;;5086497;28;20473;-71
2023/08/13 09:34:24;;;;;;;4.03;1.77;;;23.10;74.50;;;;;;5093083;28;20425;-69
2023/08/13 09:36:54;;;;;;;5.85;2.00;;;23.10;74.70;;;;;;5087431;28;20448;-69
2023/08/13 09:39:21;;;;;;;4.57;2.08;;;23.10;75.10;;;;;;5082374;28;20811;-71
2023/08/13 09:41:50;;;;;;;5.40;2.45;;;23.20;75.20;;;;;;5088061;28;20436;-69
2023/08/13 09:44:19;;;;;;;4.32;2.08;;;23.30;76.40;;;;;;5075976;28;20506;-71
2023/08/13 09:46:49;;;;;;;4.38;1.95;;;23.60;75.50;;;;;;5079382;28;20510;-69
2023/08/13 09:49:16;;;;;;;5.32;4.25;;;23.80;72.40;;;;;;5084867;28;20432;-68
2023/08/13 09:51:45;;;;;;;5.20;4.10;;;24.20;70.90;;;;;;5084618;28;20513;-70
2023/08/13 09:54:17;;;;;;;4.20;3.10;;;24.40;69.40;;;;;;5086819;28;20894;-72
2023/08/13 09:56:49;;;;;;;3.55;2.20;;;24.50;68.50;;;;;;5085247;28;20432;-71
2023/08/13 09:59:16;;;;;;;3.83;1.80;;;24.60;67.60;;;;;;5083421;28;20421;-70
2023/08/13 10:01:44;;;;;;;3.00;1.40;;;24.70;66.90;;;;;;5084608;28;20442;-70
2023/08/13 10:04:11;;;;;;;3.93;1.80;;;24.70;66.50;;;;;;5090784;28;20433;-71
2023/08/13 10:06:39;;;;;;;3.70;1.60;;;24.50;68.10;;;;;;5090256;28;20432;-70
2023/08/13 10:09:07;;;;;;;3.97;2.10;;;24.50;67.60;;;;;;5086024;28;20457;-71
2023/08/13 10:11:35;;;;;;;3.35;1.63;;;24.60;67.40;;;;;;5081821;28;20608;-74
2023/08/13 10:14:01;;;;;;;4.20;1.60;;;24.60;67.40;;;;;;5084147;28;20726;-72
2023/08/13 10:16:29;;;;;;;4.30;1.83;;;24.70;67.10;;;;;;5084967;28;20802;-71
2023/08/13 10:18:59;;;;;;;4.25;1.75;;;24.80;66.50;;;;;;5083633;28;20432;-72
2023/08/13 10:21:35;;;;;;;4.70;1.57;;;24.70;66.30;;;;;;5078195;28;20802;-70
2023/08/13 10:24:03;;;;;;;5.05;2.00;;;24.60;66.50;;;;;;5087782;28;20426;-71
2023/08/13 10:26:30;;;;;;;4.35;1.90;;;24.50;66.00;;;;;;5091774;28;20488;-71
2023/08/13 10:28:58;;;;;;;4.30;2.05;;;24.30;65.90;;;;;;5089900;28;20417;-69
2023/08/13 10:31:30;;;;;;;5.20;2.23;;;24.10;67.00;;;;;;5086394;28;20515;-69
2023/08/13 10:34:12;;;;;;;2.70;1.60;;;23.90;67.20;;;;;;5096265;28;20753;-69
2023/08/13 10:36:50;;;;;;;4.90;2.00;;;23.70;67.00;;;;;;5074684;28;20952;-71
2023/08/13 10:39:35;;;;;;;3.10;1.83;;;23.60;67.70;;;;;;5085109;28;20432;-69
2023/08/13 10:42:04;;;;;;;4.53;2.20;;;23.50;69.00;;;;;;5081582;28;20431;-69
2023/08/13 10:44:33;;;;;;;3.97;1.90;;;23.40;70.10;;;;;;5083358;28;20674;-68
2023/08/13 10:47:00;;;;;;;4.82;2.00;;;23.40;70.30;;;;;;5082923;28;20426;-68
2023/08/13 10:49:28;;;;;;;4.75;1.90;;;23.30;70.00;;;;;;5086955;28;20529;-67
2023/08/13 10:52:00;;;;;;;4.18;2.03;;;23.30;70.50;;;;;;5081931;28;20868;-69
2023/08/13 10:54:27;;;;;;;4.60;1.80;;;23.30;71.60;;;;;;5083641;28;20867;-69
2023/08/13 10:56:56;;;;;;;4.30;2.00;;;23.20;71.10;;;;;;5085392;28;20517;-68
2023/08/13 10:59:29;;;;;;;4.28;1.80;;;23.20;72.10;;;;;;5085156;28;20452;-69
2023/08/13 11:02:20;;;;;;;4.75;2.00;;;23.30;72.50;;;;;;5087251;28;20576;-69
2023/08/13 11:04:47;;;;;;;4.70;1.92;;;23.40;72.10;;;;;;5091126;28;20760;-69
2023/08/13 11:07:15;;;;;;;3.47;2.00;;;23.30;72.60;;;;;;5085563;28;20404;-69
2023/08/13 11:09:43;;;;;;;3.22;2.03;;;23.20;72.20;;;;;;5084433;28;20874;-69
2023/08/13 11:12:10;;;;;;;3.65;2.20;;;23.20;72.80;;;;;;5081156;28;20437;-70
2023/08/13 11:14:38;;;;;;;4.00;2.40;;;23.20;73.10;;;;;;5089902;28;20419;-69
2023/08/13 11:17:05;;;;;;;3.03;1.83;;;23.20;73.10;;;;;;5088809;28;20410;-70
2023/08/13 11:19:34;;;;;;;4.07;2.10;;;23.30;73.60;;;;;;5085926;28;20748;-70
2023/08/13 11:22:03;;;;;;;4.53;2.33;;;23.30;73.00;;;;;;5079790;28;20438;-69
2023/08/13 11:24:32;;;;;;;4.40;2.20;;;23.30;73.30;;;;;;5081700;28;20646;-70
2023/08/13 11:26:59;;;;;;;4.80;2.00;;;23.30;73.30;;;;;;5084137;28;20447;-70
2023/08/13 11:29:26;;;;;;;4.85;2.30;;;23.30;73.00;;;;;;5087943;28;20435;-70
2023/08/13 11:31:53;;;;;;;4.50;2.10;;;23.40;72.40;;;;;;5091961;28;20911;-70
2023/08/13 11:34:19;;;;;;;4.68;2.67;;;23.40;72.10;;;;;;5083385;28;20443;-70
2023/08/13 11:36:50;;;;;;;4.30;2.30;;;23.30;72.50;;;;;;5097046;28;20443;-69
2023/08/13 11:39:18;;;;;;;3.22;1.80;;;23.30;73.50;;;;;;5079511;28;20432;-71
2023/08/13 11:41:45;;;;;;;4.13;2.30;;;23.40;73.70;;;;;;5086441;28;20433;-69
2023/08/13 11:44:12;;;;;;;4.70;2.28;;;23.50;73.80;;;;;;5091111;28;21007;-69
2023/08/13 11:46:55;;;;;;;5.07;2.67;;;23.50;74.20;;;;;;5092619;28;20416;-69
2023/08/13 11:49:22;;;;;;;4.30;2.00;;;23.50;73.70;;;;;;5074820;28;20452;-70
2023/08/13 11:51:50;;;;;;;4.10;2.00;;;23.50;74.80;;;;;;5075971;28;20434;-71
2023/08/13 11:54:19;;;;;;;4.72;2.10;;;23.40;74.40;;;;;;5080014;28;20420;-69
2023/08/13 11:56:46;;;;;;;3.05;1.90;;;23.40;75.00;;;;;;5078335;28;20441;-71
2023/08/13 11:59:13;;;;;;;3.10;2.00;;;23.40;74.80;;;;;;5088485;28;20893;-71
2023/08/13 12:01:40;;;;;;;3.07;2.20;;;23.40;75.70;;;;;;5082077;28;20449;-71
2023/08/13 12:04:08;;;;;;;4.60;2.28;;;23.50;75.40;;;;;;5094762;28;20653;-71
2023/08/13 12:06:35;;;;;;;4.07;2.10;;;23.50;75.00;;;;;;5080421;28;20435;-70
2023/08/13 12:09:04;;;;;;;5.47;2.70;;;23.60;75.70;;;;;;5089980;28;20426;-70
2023/08/13 12:11:31;;;;;;;3.97;2.70;;;23.70;75.90;;;;;;5077993;28;20920;-70
2023/08/13 12:14:05;;;;;;;5.30;2.30;;;23.90;75.70;;;;;;5091793;28;20796;-72
2023/08/13 12:16:32;;;;;;;3.50;2.10;;;23.90;74.60;;;;;;5087757;28;20430;-71
2023/08/13 12:18:59;;;;;;;3.30;2.30;;;24.00;75.00;;;;;;5081207;28;20444;-71
2023/08/13 12:21:27;;;;;;;5.23;2.10;;;24.10;73.90;;;;;;5083929;28;20557;-71
2023/08/13 12:23:53;;;;;;;4.43;2.50;;;24.20;74.20;;;;;;5089382;28;20512;-70
2023/08/13 12:26:21;;;;;;;3.55;2.20;;;24.30;74.90;;;;;;5091834;28;20430;-70
2023/08/13 12:28:50;;;;;;;3.28;2.05;;;24.40;74.90;;;;;;5082734;28;20555;-70
2023/08/13 12:31:18;;;;;;;4.32;2.30;;;24.50;73.60;;;;;;5078071;28;20489;-70
2023/08/13 12:33:45;;;;;;;3.40;1.98;;;24.50;73.60;;;;;;5079248;28;20402;-70
2023/08/13 12:36:11;;;;;;;3.50;2.10;;;24.50;72.90;;;;;;5076762;28;20433;-70
2023/08/13 12:38:39;;;;;;;4.43;1.92;;;24.60;74.10;;;;;;5088320;28;20504;-70
2023/08/13 12:41:06;;;;;;;3.85;2.00;;;24.70;72.40;;;;;;5070498;28;20503;-69
2023/08/13 12:43:36;;;;;;;4.70;2.10;;;24.90;71.70;;;;;;5082432;28;20429;-69
2023/08/13 12:46:03;;;;;;;3.60;2.10;;;25.00;70.30;;;;;;5092225;28;20504;-71
2023/08/13 12:48:31;;;;;;;2.70;1.83;;;25.10;70.70;;;;;;5087928;28;20971;-70
2023/08/13 12:50:58;;;;;;;2.55;1.50;;;25.20;68.90;;;;;;5083871;28;20457;-72